Time;durP1;ratioP1;P1;durP2;ratioP2;P2;SDS_P1;SDS_P2;PMS_P1;PMS_P2;Temp;Humidity;BMP_temperature;BMP_pressure;BME280_temperature;BME280_humidity;BME280_pressure;Samples;Min_cycle;Max_cycle;Signal;HPM_P1;HPM_P2
2021/12/13 00:01:01;;;;;;;17.80;10.75;;;8.50;99.90;;;;;;4933851;29;20039;-62
2021/12/13 00:03:52;;;;;;;18.55;10.02;;;8.50;99.90;;;;;;4932646;29;20107;-62
2021/12/13 00:06:25;;;;;;;19.05;10.40;;;8.50;99.90;;;;;;4932922;29;20042;-61
2021/12/13 00:08:53;;;;;;;16.95;9.95;;;8.60;99.90;;;;;;4934923;29;20050;-61
2021/12/13 00:11:27;;;;;;;19.60;12.10;;;8.50;99.90;;;;;;4933208;29;20035;-61
2021/12/13 00:14:06;;;;;;;18.90;11.25;;;8.50;99.90;;;;;;4933869;28;20049;-61
2021/12/13 00:16:36;;;;;;;19.33;11.40;;;8.60;99.90;;;;;;4933903;29;20028;-61
2021/12/13 00:19:19;;;;;;;23.00;12.30;;;8.60;99.90;;;;;;4933875;29;20499;-61
2021/12/13 00:21:55;;;;;;;20.48;11.25;;;8.60;99.90;;;;;;4934227;29;20071;-61
2021/12/13 00:24:26;;;;;;;19.23;11.27;;;8.60;99.90;;;;;;4935686;29;20543;-61
2021/12/13 00:27:05;;;;;;;21.08;11.98;;;8.60;99.90;;;;;;4932311;29;20032;-62
2021/12/13 00:29:41;;;;;;;18.48;11.40;;;8.70;99.90;;;;;;4935501;28;20039;-62
2021/12/13 00:32:19;;;;;;;21.90;12.77;;;8.70;99.90;;;;;;4934649;29;20034;-62
2021/12/13 00:34:53;;;;;;;20.15;11.32;;;8.70;99.90;;;;;;4934513;29;20042;-62
2021/12/13 00:37:42;;;;;;;20.03;11.20;;;8.80;99.90;;;;;;4937289;29;20059;-61
2021/12/13 00:40:20;;;;;;;20.73;11.75;;;8.80;99.90;;;;;;4935518;28;20383;-61
2021/12/13 00:42:51;;;;;;;19.85;12.07;;;8.80;99.90;;;;;;4933843;29;20054;-62
2021/12/13 00:45:21;;;;;;;21.40;11.90;;;8.80;99.90;;;;;;4938600;29;20099;-63
2021/12/13 00:47:46;;;;;;;17.98;10.98;;;8.80;99.90;;;;;;4933647;29;20095;-62
2021/12/13 00:50:34;;;;;;;20.58;11.52;;;8.80;99.90;;;;;;4934324;29;20119;-62
2021/12/13 00:53:00;;;;;;;19.25;12.18;;;8.90;99.90;;;;;;4934715;29;20055;-62
2021/12/13 00:55:30;;;;;;;20.02;11.75;;;8.90;99.90;;;;;;4934530;29;20499;-62
2021/12/13 00:58:34;;;;;;;17.27;11.43;;;8.90;99.90;;;;;;4933651;29;20043;-62
2021/12/13 01:01:06;;;;;;;20.13;11.77;;;8.90;99.90;;;;;;4856084;29;20485;-62
2021/12/13 01:03:42;;;;;;;18.55;11.80;;;9.00;99.90;;;;;;4856385;29;20073;-62
2021/12/13 01:06:45;;;;;;;18.23;11.40;;;9.00;99.90;;;;;;4900800;29;20058;-62
2021/12/13 01:09:49;;;;;;;18.85;11.50;;;9.00;99.90;;;;;;4929659;29;20028;-62
2021/12/13 01:12:18;;;;;;;18.77;11.50;;;9.00;99.90;;;;;;4931600;29;20170;-62
2021/12/13 01:15:00;;;;;;;19.67;12.27;;;9.00;99.90;;;;;;4933967;29;20059;-61
2021/12/13 01:17:56;;;;;;;19.05;11.40;;;9.00;99.90;;;;;;4933998;29;20038;-62
2021/12/13 01:20:31;;;;;;;19.55;11.38;;;9.10;99.90;;;;;;4919697;29;20413;-61
2021/12/13 01:23:05;;;;;;;17.38;10.98;;;9.00;99.90;;;;;;4937717;28;20036;-61
2021/12/13 01:28:28;;;;;;;20.13;11.52;;;9.10;99.90;;;;;;4932393;29;20291;-62
2021/12/13 01:31:08;;;;;;;19.77;11.82;;;9.10;99.90;;;;;;4924352;29;20411;-62
2021/12/13 01:33:34;;;;;;;16.95;10.50;;;9.10;99.90;;;;;;4933705;29;20119;-62
2021/12/13 01:36:05;;;;;;;20.23;11.45;;;9.10;99.90;;;;;;4933292;29;20451;-62
2021/12/13 01:38:44;;;;;;;20.90;11.43;;;9.10;99.90;;;;;;4933573;29;20123;-62
2021/12/13 01:41:27;;;;;;;18.70;11.10;;;9.10;99.90;;;;;;4933262;29;20372;-63
2021/12/13 01:44:00;;;;;;;19.58;12.43;;;9.10;99.90;;;;;;4947913;29;20027;-63
2021/12/13 01:46:27;;;;;;;19.27;11.57;;;9.10;99.90;;;;;;4932068;29;21678;-62
2021/12/13 01:48:54;;;;;;;17.80;10.90;;;9.20;99.90;;;;;;4933425;29;20491;-62
2021/12/13 01:51:26;;;;;;;19.30;11.23;;;9.20;99.90;;;;;;4932171;29;20078;-62
2021/12/13 01:54:13;;;;;;;20.65;11.77;;;9.20;99.90;;;;;;4931354;29;20035;-62
2021/12/13 01:57:09;;;;;;;18.65;11.40;;;9.20;99.90;;;;;;4936108;29;20487;-62
2021/12/13 01:59:52;;;;;;;16.70;10.90;;;9.20;99.90;;;;;;4932805;29;20503;-62
2021/12/13 02:02:29;;;;;;;20.08;12.15;;;9.20;99.90;;;;;;4932972;29;20534;-61
2021/12/13 02:05:01;;;;;;;19.50;10.68;;;9.20;99.90;;;;;;4932319;29;20139;-62
2021/12/13 02:07:35;;;;;;;18.80;11.77;;;9.20;99.90;;;;;;4932040;29;20491;-63
2021/12/13 02:10:03;;;;;;;21.57;12.00;;;9.20;99.90;;;;;;4933253;28;20499;-62
2021/12/13 02:12:30;;;;;;;18.55;10.90;;;9.20;99.90;;;;;;4932794;29;20514;-62
2021/12/13 02:17:45;;;;;;;20.25;11.20;;;9.30;99.90;;;;;;4932624;29;20499;-62
2021/12/13 02:20:16;;;;;;;18.45;11.40;;;9.30;99.90;;;;;;4933402;29;20507;-62
2021/12/13 02:22:45;;;;;;;20.25;11.73;;;9.20;99.90;;;;;;4931870;29;20027;-62
2021/12/13 02:25:25;;;;;;;21.05;11.85;;;9.30;99.90;;;;;;4933581;29;20087;-62
2021/12/13 02:28:06;;;;;;;18.48;11.77;;;9.20;99.90;;;;;;4926434;29;20067;-62
2021/12/13 02:30:35;;;;;;;19.55;11.70;;;9.30;99.90;;;;;;4933125;29;20032;-62
2021/12/13 02:33:05;;;;;;;22.85;11.98;;;9.30;99.90;;;;;;4932771;29;20035;-62
2021/12/13 02:35:34;;;;;;;20.40;11.85;;;9.30;99.90;;;;;;4932683;29;20047;-62
2021/12/13 02:38:02;;;;;;;23.17;12.40;;;9.30;99.90;;;;;;4943015;28;20024;-62
2021/12/13 02:40:28;;;;;;;21.63;13.02;;;9.30;99.90;;;;;;4932441;29;20574;-62
2021/12/13 02:42:54;;;;;;;22.70;13.10;;;9.30;99.90;;;;;;4932526;29;20479;-62
2021/12/13 02:45:32;;;;;;;20.45;12.43;;;9.20;99.90;;;;;;4933489;29;20032;-62
2021/12/13 02:48:04;;;;;;;21.45;11.93;;;9.30;99.90;;;;;;4931417;29;20028;-62
2021/12/13 02:50:33;;;;;;;23.00;12.55;;;9.30;99.90;;;;;;4931459;29;20048;-62
2021/12/13 02:53:00;;;;;;;22.80;12.55;;;9.20;99.90;;;;;;4932815;29;20062;-62
2021/12/13 02:55:29;;;;;;;22.20;12.38;;;9.20;99.90;;;;;;4932079;29;20042;-62
2021/12/13 02:58:04;;;;;;;21.92;12.68;;;9.30;99.90;;;;;;4931695;29;20036;-62
2021/12/13 03:00:32;;;;;;;;;;;9.20;99.90;;;;;;4931522;29;20126;-62
2021/12/13 03:03:04;;;;;;;20.73;11.38;;;9.30;99.90;;;;;;4932661;29;19911;-62
2021/12/13 03:05:35;;;;;;;25.90;13.30;;;9.20;99.90;;;;;;4931815;29;20038;-62
2021/12/13 03:08:10;;;;;;;22.58;12.00;;;9.20;99.90;;;;;;4933276;29;20071;-62
2021/12/13 03:10:41;;;;;;;20.50;11.52;;;9.30;99.90;;;;;;4920874;29;20398;-62
2021/12/13 03:13:06;;;;;;;21.80;11.55;;;9.30;99.90;;;;;;4933496;29;20106;-62
2021/12/13 03:15:37;;;;;;;21.85;12.15;;;9.30;99.90;;;;;;4930381;29;20152;-62
2021/12/13 03:18:20;;;;;;;21.92;12.30;;;9.30;99.90;;;;;;4932655;29;20126;-62
2021/12/13 03:21:23;;;;;;;25.65;13.43;;;9.20;99.90;;;;;;4932644;29;20098;-62
2021/12/13 03:24:04;;;;;;;22.80;12.02;;;9.20;99.90;;;;;;4920420;29;20063;-62
2021/12/13 03:26:53;;;;;;;21.80;11.45;;;9.20;99.90;;;;;;4930619;29;20043;-62
2021/12/13 03:29:27;;;;;;;24.33;12.60;;;9.20;99.90;;;;;;4932226;29;20043;-62
2021/12/13 03:31:58;;;;;;;23.58;12.52;;;9.20;99.90;;;;;;4931832;29;20035;-62
2021/12/13 03:34:30;;;;;;;24.60;12.70;;;9.20;99.90;;;;;;4934410;29;20044;-63
2021/12/13 03:37:02;;;;;;;24.52;12.55;;;9.20;99.90;;;;;;4935624;29;20035;-62
2021/12/13 03:39:34;;;;;;;26.65;12.65;;;9.20;99.90;;;;;;4935585;29;20036;-62
2021/12/13 03:42:04;;;;;;;25.10;13.45;;;9.20;99.90;;;;;;4934863;29;20075;-62
2021/12/13 03:44:40;;;;;;;26.98;13.98;;;9.20;99.90;;;;;;4935945;29;20032;-62
2021/12/13 03:47:17;;;;;;;22.83;12.93;;;9.20;99.90;;;;;;4951172;29;20067;-62
2021/12/13 03:49:57;;;;;;;27.65;12.88;;;9.20;99.90;;;;;;4934256;29;20039;-63
2021/12/13 03:52:26;;;;;;;22.33;11.93;;;9.20;99.90;;;;;;4936652;29;20102;-63
2021/12/13 03:54:55;;;;;;;21.70;11.48;;;9.20;99.90;;;;;;4935321;29;20119;-62
2021/12/13 03:57:21;;;;;;;23.38;12.45;;;9.20;99.90;;;;;;4933745;29;20036;-62
2021/12/13 03:59:48;;;;;;;27.15;13.77;;;9.20;99.90;;;;;;4935361;29;20035;-62
2021/12/13 04:02:31;;;;;;;27.58;13.13;;;9.20;99.90;;;;;;4939322;29;20031;-62
2021/12/13 04:05:01;;;;;;;25.00;13.20;;;9.20;99.90;;;;;;4932725;29;20042;-62
2021/12/13 04:07:33;;;;;;;28.70;14.65;;;9.20;99.90;;;;;;4935764;29;20023;-62
2021/12/13 04:10:06;;;;;;;28.80;13.50;;;9.20;99.90;;;;;;4933004;29;20095;-62
2021/12/13 04:12:41;;;;;;;26.83;13.18;;;9.10;99.90;;;;;;4935963;29;20036;-62
2021/12/13 04:15:30;;;;;;;26.35;13.07;;;9.20;99.90;;;;;;4935623;29;20038;-62
2021/12/13 04:18:12;;;;;;;29.13;13.38;;;9.20;99.90;;;;;;4939190;29;20372;-62
2021/12/13 04:20:40;;;;;;;25.63;13.35;;;9.10;99.90;;;;;;4934335;29;20035;-62
2021/12/13 04:23:13;;;;;;;25.92;13.77;;;9.10;99.90;;;;;;4935120;29;20046;-61
2021/12/13 04:25:42;;;;;;;27.25;12.98;;;9.10;99.90;;;;;;4935000;29;20104;-61
2021/12/13 04:28:21;;;;;;;26.90;12.95;;;9.20;99.90;;;;;;4934063;29;20088;-61
2021/12/13 04:30:50;;;;;;;28.52;13.55;;;9.20;99.90;;;;;;4934555;29;20051;-62
2021/12/13 04:33:29;;;;;;;28.75;13.80;;;9.20;99.90;;;;;;4935463;29;20030;-62
2021/12/13 04:35:59;;;;;;;26.77;13.07;;;9.20;99.90;;;;;;4935211;29;20036;-61
2021/12/13 04:38:35;;;;;;;28.40;12.90;;;9.20;99.90;;;;;;4934252;29;20458;-62
2021/12/13 04:41:01;;;;;;;30.15;13.23;;;9.20;99.90;;;;;;4934132;29;20126;-62
2021/12/13 04:43:27;;;;;;;29.95;14.52;;;9.20;99.90;;;;;;4934571;29;20045;-61
2021/12/13 04:45:56;;;;;;;29.98;13.68;;;9.20;99.90;;;;;;4933514;29;20092;-61
2021/12/13 04:48:26;;;;;;;28.23;13.27;;;9.20;99.90;;;;;;4935184;29;20035;-61
2021/12/13 04:51:03;;;;;;;28.13;13.48;;;9.20;99.90;;;;;;4933403;29;20107;-62
2021/12/13 04:53:32;;;;;;;28.55;13.32;;;9.20;99.90;;;;;;4934708;29;20046;-62
2021/12/13 04:56:01;;;;;;;26.80;12.93;;;9.20;99.90;;;;;;4934789;29;20032;-62
2021/12/13 04:58:28;;;;;;;28.52;13.70;;;9.20;99.90;;;;;;4934242;29;20468;-62
2021/12/13 05:00:57;;;;;;;29.55;13.32;;;9.20;99.90;;;;;;4936135;29;20515;-63
2021/12/13 05:03:27;;;;;;;28.13;13.25;;;9.30;99.90;;;;;;4930695;29;20531;-63
2021/12/13 05:05:53;;;;;;;32.30;14.90;;;9.20;99.90;;;;;;4933501;29;20050;-63
2021/12/13 05:08:21;;;;;;;30.33;12.18;;;9.20;99.90;;;;;;4934137;29;20031;-63
2021/12/13 05:10:49;;;;;;;30.10;13.90;;;9.20;99.90;;;;;;4933129;29;20119;-62
2021/12/13 05:13:19;;;;;;;29.20;13.95;;;9.20;99.90;;;;;;4919108;29;20032;-62
2021/12/13 05:16:10;;;;;;;30.40;14.13;;;9.20;99.90;;;;;;4934548;29;20162;-63
2021/12/13 05:18:45;;;;;;;30.00;14.02;;;9.20;99.90;;;;;;4934421;29;20027;-63
2021/12/13 05:21:26;;;;;;;31.67;14.18;;;9.20;99.90;;;;;;4932350;29;20044;-63
2021/12/13 05:23:55;;;;;;;32.03;13.85;;;9.20;99.90;;;;;;4933964;29;20059;-63
2021/12/13 05:26:56;;;;;;;30.83;12.98;;;9.20;99.90;;;;;;4934269;29;20074;-63
2021/12/13 05:29:24;;;;;;;35.65;14.50;;;9.20;99.90;;;;;;4933561;29;20035;-63
2021/12/13 05:31:57;;;;;;;33.30;14.65;;;9.20;99.90;;;;;;4931050;29;20030;-63
2021/12/13 05:34:34;;;;;;;33.58;13.55;;;9.20;99.90;;;;;;4932821;29;20432;-63
2021/12/13 05:37:01;;;;;;;33.90;14.98;;;9.20;99.90;;;;;;4934600;29;20040;-63
2021/12/13 05:39:27;;;;;;;33.03;13.95;;;9.20;99.90;;;;;;4933152;29;20098;-63
2021/12/13 05:41:59;;;;;;;30.17;13.15;;;9.20;99.90;;;;;;4933731;29;20040;-63
2021/12/13 05:44:28;;;;;;;29.25;13.65;;;9.20;99.90;;;;;;4933918;29;20043;-63
2021/12/13 05:46:56;;;;;;;33.33;13.68;;;9.20;99.90;;;;;;4933678;29;20028;-63
2021/12/13 05:49:26;;;;;;;33.17;14.13;;;9.30;99.90;;;;;;4934039;29;20027;-64
2021/12/13 05:52:06;;;;;;;28.55;12.90;;;9.30;99.90;;;;;;4932510;29;20051;-63
2021/12/13 05:54:35;;;;;;;32.95;13.48;;;9.30;99.90;;;;;;4932419;28;20438;-63
2021/12/13 05:57:30;;;;;;;33.05;13.82;;;9.30;99.90;;;;;;4933430;29;20031;-63
2021/12/13 06:00:16;;;;;;;29.45;12.80;;;9.30;99.90;;;;;;4933498;29;20050;-63
2021/12/13 06:03:03;;;;;;;34.40;12.75;;;9.30;99.90;;;;;;4932507;29;20039;-63
2021/12/13 06:05:48;;;;;;;27.85;12.50;;;9.30;99.90;;;;;;4933277;29;20402;-63
2021/12/13 06:08:25;;;;;;;35.75;14.60;;;9.30;99.90;;;;;;4932639;29;20028;-63
2021/12/13 06:11:16;;;;;;;26.40;11.77;;;9.30;99.90;;;;;;4930916;29;20038;-63
2021/12/13 06:13:46;;;;;;;28.10;11.38;;;9.30;99.90;;;;;;4933160;29;20036;-63
2021/12/13 06:16:35;;;;;;;34.40;14.95;;;9.30;99.90;;;;;;4931935;29;20369;-63
2021/12/13 06:19:10;;;;;;;29.23;13.20;;;9.30;99.90;;;;;;4933559;29;20059;-63
2021/12/13 06:22:01;;;;;;;32.13;13.25;;;9.30;99.90;;;;;;4933213;28;20099;-63
2021/12/13 06:24:36;;;;;;;30.27;12.90;;;9.30;99.90;;;;;;4926977;29;20062;-63
2021/12/13 06:27:23;;;;;;;32.15;12.38;;;9.30;99.90;;;;;;4933262;29;20043;-63
2021/12/13 06:30:04;;;;;;;33.75;12.85;;;9.20;99.90;;;;;;4932014;29;20044;-62
2021/12/13 06:32:49;;;;;;;36.00;13.85;;;9.20;99.90;;;;;;4930949;29;20487;-63
2021/12/13 06:35:30;;;;;;;31.58;14.07;;;9.20;99.90;;;;;;4931824;29;20151;-63
2021/12/13 06:37:58;;;;;;;32.85;13.07;;;9.20;99.90;;;;;;4932907;29;20483;-63
2021/12/13 06:40:28;;;;;;;27.33;11.35;;;9.20;99.90;;;;;;4932917;29;20043;-63
2021/12/13 06:42:57;;;;;;;35.20;13.15;;;9.30;99.90;;;;;;4933089;29;20031;-63
2021/12/13 06:45:27;;;;;;;31.17;12.57;;;9.30;99.90;;;;;;4932663;29;20357;-63
2021/12/13 06:47:56;;;;;;;33.78;13.48;;;9.30;99.90;;;;;;4947901;28;20028;-63
2021/12/13 06:50:26;;;;;;;35.50;13.38;;;9.30;99.90;;;;;;4932268;28;20487;-63
2021/12/13 06:53:12;;;;;;;32.72;12.50;;;9.30;99.90;;;;;;4932287;29;20063;-62
2021/12/13 06:55:38;;;;;;;31.27;11.60;;;9.30;99.90;;;;;;4932279;29;20126;-63
2021/12/13 06:58:20;;;;;;;27.60;12.27;;;9.30;99.90;;;;;;4932719;29;20024;-62
2021/12/13 07:00:51;;;;;;;29.45;13.20;;;9.30;99.90;;;;;;4932575;29;20118;-62
2021/12/13 07:03:21;;;;;;;34.13;12.68;;;9.30;99.90;;;;;;4932735;29;20051;-63
2021/12/13 07:05:56;;;;;;;34.72;12.68;;;9.30;99.90;;;;;;4932548;29;20395;-63
2021/12/13 07:08:25;;;;;;;34.70;14.02;;;9.30;99.90;;;;;;4933129;29;20036;-63
2021/12/13 07:10:51;;;;;;;33.50;13.00;;;9.30;99.90;;;;;;4936002;29;20394;-63
2021/12/13 07:13:19;;;;;;;33.42;14.85;;;9.40;99.90;;;;;;4935251;29;20019;-63
2021/12/13 07:15:54;;;;;;;37.63;15.02;;;9.40;99.90;;;;;;4936237;29;20041;-63
2021/12/13 07:18:28;;;;;;;;;;;9.40;99.90;;;;;;4936981;28;20030;-63
2021/12/13 07:21:05;;;;;;;33.13;12.75;;;9.40;99.90;;;;;;4936029;29;19982;-62
2021/12/13 07:23:58;;;;;;;37.38;13.90;;;9.40;99.90;;;;;;4935664;29;20040;-63
2021/12/13 07:26:40;;;;;;;31.17;13.00;;;9.40;99.90;;;;;;4935563;29;20387;-63
2021/12/13 07:29:25;;;;;;;36.58;13.80;;;9.40;99.90;;;;;;4927508;29;20036;-63
2021/12/13 07:32:17;;;;;;;34.72;13.93;;;9.40;99.90;;;;;;4935980;29;20427;-63
2021/12/13 07:34:49;;;;;;;36.75;12.82;;;9.40;99.90;;;;;;4931038;29;20063;-63
2021/12/13 07:37:15;;;;;;;38.70;13.75;;;9.30;99.90;;;;;;4937654;29;20028;-62
2021/12/13 07:39:41;;;;;;;33.72;14.35;;;9.40;99.90;;;;;;4929054;29;20039;-63
2021/12/13 07:42:09;;;;;;;35.45;14.05;;;9.30;99.90;;;;;;4933853;29;20035;-63
2021/12/13 07:44:42;;;;;;;36.30;14.38;;;9.40;99.90;;;;;;4940903;29;20053;-63
2021/12/13 07:47:14;;;;;;;33.95;12.75;;;9.40;99.90;;;;;;4935253;29;20487;-63
2021/12/13 07:49:43;;;;;;;34.83;13.52;;;9.40;99.90;;;;;;4934234;29;20066;-63
2021/12/13 07:52:24;;;;;;;41.20;15.70;;;9.50;99.90;;;;;;4934161;29;20415;-63
2021/12/13 07:54:50;;;;;;;31.85;14.23;;;9.50;99.90;;;;;;4933820;29;20075;-63
2021/12/13 07:57:24;;;;;;;31.58;13.20;;;9.50;99.90;;;;;;4943277;28;20506;-64
2021/12/13 07:59:51;;;;;;;33.50;13.20;;;9.50;99.90;;;;;;4924222;29;20044;-63
2021/12/13 08:02:31;;;;;;;32.42;12.82;;;9.60;99.90;;;;;;4928208;29;20479;-63
2021/12/13 08:05:11;;;;;;;35.63;13.27;;;9.60;99.90;;;;;;4929354;29;20023;-63
2021/12/13 08:07:44;;;;;;;32.40;14.05;;;9.60;99.90;;;;;;4945054;28;20464;-63
2021/12/13 08:10:21;;;;;;;32.75;14.82;;;9.60;99.90;;;;;;4929948;29;20086;-63
2021/12/13 08:12:53;;;;;;;29.63;13.20;;;9.40;99.90;;;;;;4929809;29;20499;-63
2021/12/13 08:15:36;;;;;;;35.55;14.20;;;9.40;99.90;;;;;;4929955;29;20091;-63
2021/12/13 08:18:10;;;;;;;32.45;14.27;;;9.50;99.90;;;;;;4936587;29;20522;-63
2021/12/13 08:20:46;;;;;;;37.45;14.73;;;9.40;99.90;;;;;;4926311;29;20054;-63
2021/12/13 08:23:22;;;;;;;35.08;14.70;;;9.50;99.90;;;;;;4927090;29;20043;-63
2021/12/13 08:25:52;;;;;;;33.55;13.05;;;9.40;99.90;;;;;;4928974;28;20036;-63
2021/12/13 08:28:29;;;;;;;37.08;15.48;;;9.40;99.90;;;;;;4927238;29;20136;-63
2021/12/13 08:30:58;;;;;;;31.15;13.32;;;9.40;99.90;;;;;;4927528;29;20039;-64
2021/12/13 08:33:39;;;;;;;31.60;13.50;;;9.40;99.90;;;;;;4928743;29;20078;-64
2021/12/13 08:36:09;;;;;;;33.22;13.63;;;9.50;99.90;;;;;;4929905;29;20035;-64
2021/12/13 08:38:48;;;;;;;35.25;14.50;;;9.50;99.90;;;;;;4928637;29;20034;-63
2021/12/13 08:41:29;;;;;;;31.77;14.05;;;9.50;99.90;;;;;;4925900;29;20487;-63
2021/12/13 08:44:25;;;;;;;34.60;13.52;;;9.50;99.90;;;;;;4929691;29;20310;-63
2021/12/13 08:46:56;;;;;;;27.88;12.18;;;9.60;99.90;;;;;;4928809;29;20031;-63
2021/12/13 08:49:40;;;;;;;26.15;12.10;;;9.60;99.90;;;;;;4926562;29;20044;-63
2021/12/13 08:52:19;;;;;;;34.00;13.15;;;9.60;99.90;;;;;;4927081;29;20091;-63
2021/12/13 08:54:55;;;;;;;25.70;11.68;;;9.60;99.90;;;;;;4926868;29;20047;-63
2021/12/13 08:57:51;;;;;;;27.48;12.75;;;9.70;99.90;;;;;;4926872;29;20031;-63
2021/12/13 09:00:44;;;;;;;30.88;11.77;;;9.70;99.90;;;;;;4929023;29;20036;-64
2021/12/13 09:03:09;;;;;;;30.63;11.88;;;9.70;99.90;;;;;;4929863;29;20487;-63
2021/12/13 09:05:39;;;;;;;24.98;11.68;;;9.80;99.90;;;;;;4929574;29;20093;-63
2021/12/13 09:08:07;;;;;;;28.85;13.48;;;9.70;99.90;;;;;;4930741;29;20385;-63
2021/12/13 09:10:55;;;;;;;26.83;12.68;;;9.70;99.90;;;;;;4927590;28;20062;-63
2021/12/13 09:13:44;;;;;;;29.27;13.38;;;9.70;99.90;;;;;;4940006;28;20027;-63
2021/12/13 09:16:12;;;;;;;27.25;12.15;;;9.80;99.90;;;;;;4930217;29;20047;-65
2021/12/13 09:18:39;;;;;;;28.30;12.07;;;9.80;99.90;;;;;;4927021;29;20035;-63
2021/12/13 09:21:06;;;;;;;28.35;12.30;;;9.80;99.90;;;;;;4928864;29;20043;-63
2021/12/13 09:23:42;;;;;;;28.08;13.95;;;9.80;99.90;;;;;;4926056;29;20097;-63
2021/12/13 09:26:10;;;;;;;24.15;12.18;;;9.90;99.90;;;;;;4931683;29;20086;-63
2021/12/13 09:28:44;;;;;;;24.42;12.60;;;9.90;99.90;;;;;;4925145;29;20031;-63
2021/12/13 09:31:15;;;;;;;32.08;13.10;;;9.90;99.90;;;;;;4927284;29;20028;-63
2021/12/13 09:33:51;;;;;;;27.88;11.90;;;9.90;99.90;;;;;;4924138;29;20792;-63
2021/12/13 09:36:31;;;;;;;27.90;12.27;;;9.90;99.90;;;;;;4928378;29;20042;-64
2021/12/13 09:39:04;;;;;;;29.23;12.73;;;9.90;99.90;;;;;;4927245;29;20136;-63
2021/12/13 09:41:45;;;;;;;28.58;12.98;;;9.90;99.90;;;;;;4928177;29;20206;-63
2021/12/13 09:44:11;;;;;;;24.98;12.82;;;9.90;99.90;;;;;;4929090;29;20502;-63
2021/12/13 09:46:43;;;;;;;24.40;11.80;;;10.00;99.90;;;;;;4930683;29;20036;-64
2021/12/13 09:49:20;;;;;;;26.98;12.90;;;10.00;99.90;;;;;;4928549;29;20399;-63
2021/12/13 09:51:56;;;;;;;24.45;12.77;;;10.00;99.90;;;;;;4925362;29;20078;-64
2021/12/13 09:54:26;;;;;;;27.73;13.10;;;10.00;99.90;;;;;;4925284;29;20028;-64
2021/12/13 09:56:53;;;;;;;27.80;12.65;;;10.00;99.90;;;;;;4928353;29;20039;-63
2021/12/13 09:59:50;;;;;;;21.38;10.65;;;10.10;99.90;;;;;;4925243;29;20087;-63
2021/12/13 10:02:31;;;;;;;22.70;11.73;;;10.10;99.90;;;;;;4914981;29;20043;-63
2021/12/13 10:04:57;;;;;;;20.73;11.18;;;10.10;99.90;;;;;;4925690;28;20028;-64
2021/12/13 10:07:30;;;;;;;22.20;10.20;;;10.10;99.90;;;;;;4925387;29;20039;-63
2021/12/13 10:10:13;;;;;;;21.80;10.90;;;10.10;99.90;;;;;;4929300;29;20163;-63
2021/12/13 10:12:48;;;;;;;20.92;10.15;;;10.20;99.90;;;;;;4927899;29;20071;-63
2021/12/13 10:15:19;;;;;;;22.85;10.48;;;10.20;99.90;;;;;;4928439;29;20024;-64
2021/12/13 10:17:50;;;;;;;22.23;9.77;;;10.20;99.90;;;;;;4924987;29;20040;-63
2021/12/13 10:20:21;;;;;;;19.17;9.75;;;10.20;99.90;;;;;;4926592;29;20046;-63
2021/12/13 10:22:48;;;;;;;20.05;9.20;;;10.20;99.90;;;;;;4928353;29;20024;-64
2021/12/13 10:25:26;;;;;;;20.17;9.52;;;10.20;99.90;;;;;;4927093;28;20024;-63
2021/12/13 10:27:53;;;;;;;19.63;9.55;;;10.20;99.90;;;;;;4928726;29;20048;-64
2021/12/13 10:30:32;;;;;;;16.42;9.10;;;10.20;99.90;;;;;;4924262;29;20075;-64
2021/12/13 10:32:59;;;;;;;18.48;9.98;;;10.20;99.90;;;;;;4925830;29;20051;-63
2021/12/13 10:35:32;;;;;;;19.52;9.38;;;10.30;99.90;;;;;;4927538;29;20051;-63
2021/12/13 10:38:09;;;;;;;18.60;9.05;;;10.30;99.90;;;;;;4942575;28;20115;-63
2021/12/13 10:40:39;;;;;;;19.23;10.32;;;10.30;99.90;;;;;;4924747;29;20179;-63
2021/12/13 10:43:28;;;;;;;19.42;9.20;;;10.40;99.90;;;;;;4928795;29;20038;-63
2021/12/13 10:45:58;;;;;;;16.00;8.90;;;10.40;99.90;;;;;;4929850;29;20947;-63
2021/12/13 10:48:29;;;;;;;19.63;10.18;;;10.40;99.90;;;;;;4936960;29;20112;-64
2021/12/13 10:51:07;;;;;;;20.52;10.05;;;10.50;99.90;;;;;;4934807;29;20098;-63
2021/12/13 10:53:34;;;;;;;22.38;10.00;;;10.50;99.90;;;;;;4936550;29;20039;-63
2021/12/13 10:56:09;;;;;;;19.80;9.95;;;10.50;99.90;;;;;;4942865;29;20039;-63
2021/12/13 10:58:39;;;;;;;21.48;11.30;;;10.50;99.90;;;;;;4936540;29;20035;-63
2021/12/13 11:01:13;;;;;;;20.33;11.02;;;10.50;99.90;;;;;;4936061;29;20074;-64
2021/12/13 11:03:40;;;;;;;19.88;10.48;;;10.60;99.90;;;;;;4930117;29;20056;-63
2021/12/13 11:06:08;;;;;;;21.73;9.52;;;10.60;99.90;;;;;;4931258;29;20040;-64
2021/12/13 11:08:41;;;;;;;18.55;10.20;;;10.60;99.90;;;;;;4926910;29;20028;-64
2021/12/13 11:11:19;;;;;;;26.63;10.73;;;10.60;99.90;;;;;;4927811;29;20031;-65
2021/12/13 11:13:49;;;;;;;21.20;9.70;;;10.60;99.90;;;;;;4931719;29;20038;-65
2021/12/13 11:16:22;;;;;;;18.60;10.52;;;10.70;99.90;;;;;;4929392;29;20471;-65
2021/12/13 11:18:48;;;;;;;22.73;10.02;;;10.70;99.90;;;;;;4931024;29;20183;-64
2021/12/13 11:21:23;;;;;;;18.50;9.70;;;10.70;99.90;;;;;;4935421;29;20110;-65
2021/12/13 11:23:49;;;;;;;;;;;10.70;99.90;;;;;;4931379;29;20038;-64
2021/12/13 11:26:18;;;;;;;20.05;9.60;;;10.80;99.90;;;;;;4931368;29;19914;-64
2021/12/13 11:28:44;;;;;;;22.17;11.32;;;10.80;99.90;;;;;;4928358;29;20036;-64
2021/12/13 11:31:15;;;;;;;22.55;11.43;;;10.80;99.90;;;;;;4931927;29;20376;-65
2021/12/13 11:34:27;;;;;;;21.70;10.75;;;10.80;99.90;;;;;;4929602;29;20023;-65
2021/12/13 11:37:06;;;;;;;19.95;11.07;;;10.80;99.90;;;;;;4916486;29;20047;-65
2021/12/13 11:39:58;;;;;;;22.27;11.43;;;10.80;99.90;;;;;;4935959;29;20063;-64
2021/12/13 11:42:54;;;;;;;22.60;12.02;;;10.80;99.90;;;;;;4935957;29;20039;-65
2021/12/13 11:45:53;;;;;;;21.08;10.60;;;10.80;99.90;;;;;;4934646;29;20032;-65
2021/12/13 11:48:41;;;;;;;17.65;9.98;;;10.90;99.90;;;;;;4929494;29;20163;-65
2021/12/13 11:51:38;;;;;;;18.05;10.30;;;10.90;99.90;;;;;;4933845;29;20135;-65
2021/12/13 11:54:38;;;;;;;22.25;11.27;;;10.90;99.90;;;;;;4933029;29;20024;-65
2021/12/13 11:57:28;;;;;;;21.92;11.25;;;10.90;99.90;;;;;;4929639;29;20027;-65
2021/12/13 12:00:25;;;;;;;22.02;11.18;;;10.90;99.90;;;;;;4930119;29;20051;-65
2021/12/13 12:03:09;;;;;;;18.05;10.13;;;11.00;99.90;;;;;;4932408;29;20046;-65
2021/12/13 12:06:12;;;;;;;19.48;9.75;;;11.00;99.90;;;;;;4931888;29;20127;-67
2021/12/13 12:09:11;;;;;;;18.92;10.23;;;11.00;99.90;;;;;;4942506;28;20052;-65
2021/12/13 12:12:28;;;;;;;18.52;9.50;;;11.00;99.90;;;;;;4931718;29;20040;-65
2021/12/13 12:15:00;;;;;;;16.00;9.07;;;11.10;99.90;;;;;;4918228;29;20057;-65
2021/12/13 12:17:28;;;;;;;15.60;9.07;;;11.00;99.90;;;;;;4936351;29;20059;-65
2021/12/13 12:19:56;;;;;;;17.33;9.55;;;11.10;99.90;;;;;;4941724;28;20426;-65
2021/12/13 12:22:22;;;;;;;18.38;9.93;;;11.10;99.90;;;;;;4937107;28;20024;-65
2021/12/13 12:24:57;;;;;;;17.90;10.20;;;11.20;99.90;;;;;;4936117;29;20031;-65
2021/12/13 12:27:24;;;;;;;;;;;11.20;99.90;;;;;;4920608;29;20032;-65
2021/12/13 12:29:56;;;;;;;16.63;8.98;;;11.20;99.90;;;;;;4917248;29;20351;-65
2021/12/13 12:32:29;;;;;;;18.15;9.60;;;11.20;99.90;;;;;;4918012;29;20490;-65
2021/12/13 12:35:16;;;;;;;21.38;10.73;;;11.20;99.90;;;;;;4934911;29;20457;-65
2021/12/13 12:38:15;;;;;;;20.60;9.95;;;11.30;99.90;;;;;;4936176;29;20119;-65
2021/12/13 12:40:49;;;;;;;17.02;9.18;;;11.30;99.90;;;;;;4933464;29;20044;-65
2021/12/13 12:43:24;;;;;;;16.25;8.50;;;11.30;99.90;;;;;;4934568;29;20119;-65
2021/12/13 12:45:54;;;;;;;17.08;9.00;;;11.30;99.90;;;;;;4935887;29;20759;-65
2021/12/13 12:48:33;;;;;;;13.32;8.15;;;11.40;99.90;;;;;;4941290;29;20550;-64
2021/12/13 12:51:07;;;;;;;15.10;9.43;;;11.40;99.90;;;;;;4933604;29;20052;-65
2021/12/13 12:53:46;;;;;;;16.83;10.05;;;11.30;99.90;;;;;;4936143;29;20038;-65
2021/12/13 12:56:31;;;;;;;14.48;8.65;;;11.40;99.90;;;;;;4935576;29;20534;-65
2021/12/13 12:59:22;;;;;;;17.30;10.43;;;11.40;99.90;;;;;;4935697;29;20387;-65
2021/12/13 13:02:12;;;;;;;17.00;9.13;;;11.40;99.90;;;;;;4925423;29;20496;-65
2021/12/13 13:04:48;;;;;;;15.48;9.10;;;11.40;99.90;;;;;;4925567;29;20173;-64
2021/12/13 13:07:29;;;;;;;16.05;9.13;;;11.40;99.90;;;;;;4935256;29;20070;-64
2021/12/13 13:09:58;;;;;;;14.23;8.45;;;11.40;99.90;;;;;;4935344;29;20591;-65
2021/12/13 13:12:28;;;;;;;15.00;8.48;;;11.40;99.90;;;;;;4934063;29;20032;-64
2021/12/13 13:15:05;;;;;;;13.35;8.13;;;11.50;99.90;;;;;;4926545;29;20024;-65
2021/12/13 13:17:34;;;;;;;16.17;8.55;;;11.50;99.90;;;;;;4933147;29;20040;-65
2021/12/13 13:20:06;;;;;;;14.88;8.75;;;11.50;99.90;;;;;;4954048;28;20459;-65
2021/12/13 13:22:38;;;;;;;16.20;8.18;;;11.50;99.90;;;;;;4942088;28;20111;-65
2021/12/13 13:25:20;;;;;;;14.50;7.63;;;11.60;99.90;;;;;;4935227;29;20380;-65